createdAt,value
2019-02-12T00:02:06.750Z,5.13
2019-02-12T00:05:10.065Z,5.10
2019-02-12T00:08:13.305Z,5.08
2019-02-12T00:11:16.229Z,5.10
2019-02-12T00:14:19.516Z,5.13
2019-02-12T00:17:22.772Z,5.00
2019-02-12T00:20:25.707Z,5.07
2019-02-12T00:23:30.122Z,5.07
2019-02-12T00:26:33.392Z,4.87
2019-02-12T00:29:37.431Z,4.80
2019-02-12T00:32:40.739Z,4.85
2019-02-12T00:35:43.677Z,5.01
2019-02-12T00:38:46.591Z,5.03
2019-02-12T00:41:49.895Z,4.95
2019-02-12T00:44:54.624Z,5.05
2019-02-12T00:47:57.552Z,5.07
2019-02-12T00:51:00.853Z,4.86
2019-02-12T00:54:03.756Z,4.91
2019-02-12T00:57:07.057Z,4.84
2019-02-12T01:00:12.422Z,4.86
2019-02-12T01:03:15.396Z,4.87
2019-02-12T01:06:19.305Z,4.82
2019-02-12T01:09:22.540Z,4.71
2019-02-12T01:12:25.501Z,4.84
2019-02-12T01:15:28.704Z,4.65
2019-02-12T01:18:31.643Z,4.71
2019-02-12T01:21:34.563Z,4.77
2019-02-12T01:24:39.254Z,4.59
2019-02-12T01:27:42.185Z,4.53
2019-02-12T01:30:45.097Z,4.68
2019-02-12T01:33:48.621Z,4.78
2019-02-12T01:36:51.876Z,4.79
2019-02-12T01:39:54.809Z,4.70
2019-02-12T01:42:57.784Z,4.71
2019-02-12T01:46:00.695Z,4.66
2019-02-12T01:49:04.012Z,4.74
2019-02-12T01:52:07.244Z,4.68
2019-02-12T01:55:10.495Z,4.79
2019-02-12T01:58:13.446Z,4.82
2019-02-12T02:01:16.803Z,4.78
2019-02-12T02:04:19.737Z,4.78
2019-02-12T02:07:22.991Z,4.83
2019-02-12T02:10:26.294Z,4.63
2019-02-12T02:13:30.528Z,4.66
2019-02-12T02:16:33.872Z,4.52
2019-02-12T02:19:37.198Z,4.70
2019-02-12T02:22:40.099Z,4.84
2019-02-12T02:25:43.365Z,4.82
2019-02-12T02:28:46.633Z,4.78
2019-02-12T02:31:49.981Z,4.86
2019-02-12T02:34:53.572Z,4.81
2019-02-12T02:37:57.284Z,4.85
2019-02-12T02:41:00.219Z,4.84
2019-02-12T02:44:03.188Z,4.73
2019-02-12T02:47:06.492Z,4.74
2019-02-12T02:50:09.457Z,4.70
2019-02-12T02:53:12.371Z,4.79
2019-02-12T02:56:15.295Z,4.63
2019-02-12T02:59:18.197Z,4.63
2019-02-12T03:02:21.116Z,4.68
2019-02-12T03:05:24.022Z,4.57
2019-02-12T03:08:27.253Z,4.65
2019-02-12T03:11:30.543Z,4.62
2019-02-12T03:14:33.623Z,4.66
2019-02-12T03:17:36.554Z,4.69
2019-02-12T03:20:39.834Z,4.74
2019-02-12T03:23:43.101Z,4.66
2019-02-12T03:26:46.327Z,4.41
2019-02-12T03:29:49.631Z,4.48
2019-02-12T03:32:53.339Z,4.39
2019-02-12T03:35:56.613Z,4.42
2019-02-12T03:39:00.233Z,4.22
2019-02-12T03:42:03.228Z,4.34
2019-02-12T03:45:07.214Z,4.14
2019-02-12T03:48:10.153Z,4.27
2019-02-12T03:51:13.407Z,4.22
2019-02-12T03:54:16.330Z,4.31
2019-02-12T03:57:19.234Z,4.28
2019-02-12T04:00:22.152Z,4.35
2019-02-12T04:03:25.080Z,4.10
2019-02-12T04:06:28.371Z,4.15
2019-02-12T04:09:32.352Z,4.14
2019-02-12T04:12:35.558Z,4.13
2019-02-12T04:15:38.692Z,4.07
2019-02-12T04:18:41.595Z,4.04
2019-02-12T04:21:44.530Z,4.02
2019-02-12T04:24:47.820Z,3.93
2019-02-12T04:27:52.140Z,4.00
2019-02-12T04:30:55.408Z,3.86
2019-02-12T04:33:58.610Z,3.98
2019-02-12T04:37:01.939Z,3.82
2019-02-12T04:40:06.028Z,3.71
2019-02-12T04:43:09.304Z,3.83
2019-02-12T04:46:12.246Z,3.86
2019-02-12T04:49:15.171Z,3.86
2019-02-12T04:52:18.515Z,3.82
2019-02-12T04:55:21.799Z,3.69
2019-02-12T04:58:25.082Z,3.80
2019-02-12T05:01:28.315Z,3.73
2019-02-12T05:04:31.236Z,3.64
2019-02-12T05:07:34.517Z,3.84
2019-02-12T05:10:43.495Z,3.72
2019-02-12T05:13:46.844Z,3.76
2019-02-12T05:16:49.790Z,3.75
2019-02-12T05:19:54.147Z,3.75
2019-02-12T05:22:57.384Z,3.81
2019-02-12T05:26:00.284Z,3.76
2019-02-12T05:29:03.589Z,3.67
2019-02-12T05:32:06.489Z,3.71
2019-02-12T05:35:09.780Z,3.68
2019-02-12T05:38:13.436Z,3.78
2019-02-12T05:41:16.668Z,3.81
2019-02-12T05:44:19.589Z,3.80
2019-02-12T05:47:22.981Z,3.87
2019-02-12T05:50:26.631Z,3.86
2019-02-12T05:53:29.548Z,3.69
2019-02-12T05:56:32.474Z,3.72
2019-02-12T05:59:35.680Z,3.89
2019-02-12T06:02:38.658Z,3.87
2019-02-12T06:05:41.977Z,3.68
2019-02-12T06:08:44.903Z,3.82
2019-02-12T06:11:47.815Z,3.67
2019-02-12T06:14:52.209Z,3.71
2019-02-12T06:17:55.502Z,3.83
2019-02-12T06:20:59.109Z,3.91
2019-02-12T06:24:03.524Z,4.01
2019-02-12T06:27:06.456Z,3.82
2019-02-12T06:30:09.687Z,3.81
2019-02-12T06:33:12.611Z,3.95
2019-02-12T06:36:15.962Z,3.95
2019-02-12T06:39:18.893Z,4.02
2019-02-12T06:42:22.181Z,3.88
2019-02-12T06:45:25.110Z,3.86
2019-02-12T06:48:28.662Z,3.91
2019-02-12T06:51:31.981Z,4.08
2019-02-12T06:54:35.001Z,3.88
2019-02-12T06:57:38.280Z,3.91
2019-02-12T07:00:41.976Z,4.12
2019-02-12T07:04:11.357Z,4.04
2019-02-12T07:08:13.026Z,3.88
2019-02-12T07:12:32.603Z,3.98
2019-02-12T07:16:34.383Z,3.92
2019-02-12T07:20:22.211Z,3.98
2019-02-12T07:24:19.140Z,4.11
2019-02-12T07:28:25.055Z,4.00
2019-02-12T07:32:33.255Z,4.17
2019-02-12T07:36:32.734Z,4.75
2019-02-12T07:40:43.939Z,4.44
2019-02-12T07:44:45.540Z,4.35
2019-02-12T07:48:45.525Z,4.13
2019-02-12T07:52:41.782Z,4.09
2019-02-12T07:56:24.853Z,4.02
2019-02-12T08:00:23.064Z,4.16
2019-02-12T08:04:26.795Z,4.06
2019-02-12T08:08:37.563Z,4.16
2019-02-12T08:13:00.068Z,4.14
2019-02-12T08:16:36.579Z,4.10
2019-02-12T08:20:41.695Z,4.02
2019-02-12T08:24:45.259Z,4.18
2019-02-12T08:29:00.318Z,4.30
2019-02-12T08:33:01.003Z,4.32
2019-02-12T08:36:44.286Z,4.30
2019-02-12T08:41:01.547Z,7.45
2019-02-12T08:44:22.957Z,5.12
2019-02-12T08:48:13.643Z,4.54
2019-02-12T08:52:36.247Z,4.41
2019-02-12T08:56:37.232Z,4.38
2019-02-12T09:00:27.951Z,4.28
2019-02-12T09:04:52.505Z,4.57
2019-02-12T09:08:36.832Z,4.44
2019-02-12T09:12:20.569Z,4.48
2019-02-12T09:16:18.461Z,4.47
2019-02-12T09:20:32.412Z,4.58
2019-02-12T09:24:31.501Z,4.53
2019-02-12T09:28:17.442Z,4.56
2019-02-12T09:32:13.617Z,4.43
2019-02-12T09:36:13.653Z,4.62
2019-02-12T09:40:19.240Z,4.49
2019-02-12T09:43:50.758Z,4.42
2019-02-12T09:47:55.214Z,4.53
2019-02-12T09:51:49.931Z,4.56
2019-02-12T09:55:25.159Z,4.54
2019-02-12T09:59:02.320Z,4.51
2019-02-12T10:03:24.312Z,4.63
2019-02-12T10:06:48.757Z,4.75
2019-02-12T10:10:48.935Z,7.69
2019-02-12T10:14:12.162Z,9.87
2019-02-12T10:17:56.021Z,6.02
2019-02-12T10:21:37.587Z,5.53
2019-02-12T10:25:29.425Z,5.43
2019-02-12T10:29:26.498Z,5.32
2019-02-12T10:32:27.869Z,5.13
2019-02-12T10:35:30.984Z,5.49
2019-02-12T10:38:33.907Z,5.35
2019-02-12T10:41:37.226Z,5.29
2019-02-12T10:44:40.173Z,5.53
2019-02-12T10:47:43.073Z,5.44
2019-02-12T10:50:46.099Z,5.44
2019-02-12T10:53:49.753Z,5.37
2019-02-12T10:56:55.582Z,5.28
2019-02-12T10:59:58.876Z,5.44
2019-02-12T11:03:01.801Z,5.60
2019-02-12T11:06:04.935Z,5.45
2019-02-12T11:09:10.152Z,5.51
2019-02-12T11:12:13.194Z,5.53
2019-02-12T11:15:17.023Z,5.67
2019-02-12T11:18:20.341Z,5.74
2019-02-12T11:21:23.663Z,5.68
2019-02-12T11:24:26.597Z,5.66
2019-02-12T11:27:30.540Z,5.64
2019-02-12T11:30:33.806Z,5.59
2019-02-12T11:33:37.062Z,5.83
2019-02-12T11:36:40.308Z,5.83
2019-02-12T11:39:43.600Z,5.84
2019-02-12T11:42:46.889Z,6.20
2019-02-12T11:45:50.746Z,6.15
2019-02-12T11:48:53.672Z,6.43
2019-02-12T11:51:57.524Z,6.27
2019-02-12T11:55:02.041Z,6.39
2019-02-12T11:58:04.961Z,6.54
2019-02-12T12:01:12.518Z,6.12
2019-02-12T12:04:15.429Z,6.24
2019-02-12T12:07:19.004Z,6.16
2019-02-12T12:10:21.921Z,6.21
2019-02-12T12:13:25.275Z,6.23
2019-02-12T12:16:28.171Z,6.40
2019-02-12T12:19:31.088Z,6.40
2019-02-12T12:22:33.992Z,6.31
2019-02-12T12:25:36.944Z,5.99
2019-02-12T12:28:39.945Z,6.16
2019-02-12T12:31:43.227Z,6.25
2019-02-12T12:34:46.156Z,6.07
2019-02-12T12:37:49.070Z,6.15
2019-02-12T12:40:51.995Z,5.97
2019-02-12T12:43:54.907Z,5.91
2019-02-12T12:47:00.050Z,6.06
2019-02-12T12:50:03.910Z,5.96
2019-02-12T12:53:07.169Z,5.98
2019-02-12T12:56:10.097Z,5.99
2019-02-12T12:59:13.306Z,6.11
2019-02-12T13:02:16.865Z,5.94
2019-02-12T13:05:19.766Z,5.97
2019-02-12T13:08:22.688Z,5.99
2019-02-12T13:11:26.743Z,6.16
2019-02-12T13:14:31.148Z,5.96
2019-02-12T13:17:36.855Z,6.06
2019-02-12T13:20:39.775Z,6.02
2019-02-12T13:23:42.721Z,6.10
2019-02-12T13:26:46.011Z,6.00
2019-02-12T13:29:49.216Z,6.01
2019-02-12T13:32:52.127Z,6.04
2019-02-12T13:35:55.871Z,6.10
2019-02-12T13:38:58.800Z,6.14
2019-02-12T13:42:01.723Z,6.30
2019-02-12T13:45:07.204Z,6.32
2019-02-12T13:48:10.627Z,6.32
2019-02-12T13:51:13.941Z,6.18
2019-02-12T13:54:16.859Z,6.16
2019-02-12T13:57:19.793Z,6.12
2019-02-12T14:00:23.077Z,6.24
2019-02-12T14:03:25.988Z,6.36
2019-02-12T14:06:29.299Z,6.27
2019-02-12T14:09:32.567Z,6.20
2019-02-12T14:12:35.771Z,6.21
2019-02-12T14:15:40.032Z,6.22
2019-02-12T14:18:42.955Z,6.26
2019-02-12T14:21:45.914Z,6.44
2019-02-12T14:24:48.848Z,6.32
2019-02-12T14:27:51.779Z,6.25
2019-02-12T14:30:54.693Z,6.27
2019-02-12T14:33:57.631Z,6.32
2019-02-12T14:37:00.542Z,6.18
2019-02-12T14:40:03.754Z,6.42
2019-02-12T14:43:13.871Z,6.37
2019-02-12T14:46:11.603Z,6.45
2019-02-12T14:49:14.953Z,6.51
2019-02-12T14:52:17.883Z,6.72
2019-02-12T14:55:21.195Z,6.93
2019-02-12T14:58:24.869Z,6.75
2019-02-12T15:01:28.074Z,6.95
2019-02-12T15:04:31.271Z,7.02
2019-02-12T15:07:34.200Z,6.91
2019-02-12T15:10:37.204Z,6.75
2019-02-12T15:13:40.462Z,6.70
2019-02-12T15:16:43.419Z,6.56
2019-02-12T15:19:46.677Z,6.64
2019-02-12T15:22:49.589Z,6.61
2019-02-12T15:25:52.910Z,7.48
2019-02-12T15:28:55.844Z,6.78
2019-02-12T15:31:58.868Z,6.74
2019-02-12T15:35:01.821Z,6.65
2019-02-12T15:38:04.761Z,6.58
2019-02-12T15:41:07.703Z,6.62
2019-02-12T15:44:10.989Z,6.61
2019-02-12T15:47:14.360Z,6.48
2019-02-12T15:50:17.410Z,6.45
2019-02-12T15:53:21.459Z,6.51
2019-02-12T15:56:24.416Z,6.43
2019-02-12T15:59:27.327Z,6.52
2019-02-12T16:02:32.015Z,6.38
2019-02-12T16:05:35.824Z,6.32
2019-02-12T16:08:39.476Z,6.39
2019-02-12T16:11:44.074Z,6.32
2019-02-12T16:14:47.560Z,6.32
2019-02-12T16:17:50.918Z,6.21
2019-02-12T16:20:53.824Z,6.18
2019-02-12T16:23:57.845Z,6.20
2019-02-12T16:27:01.503Z,6.09
2019-02-12T16:30:07.468Z,6.07
2019-02-12T16:33:10.454Z,5.98
2019-02-12T16:36:13.773Z,5.98
2019-02-12T16:39:17.133Z,5.99
2019-02-12T16:42:20.155Z,5.96
2019-02-12T16:45:29.269Z,5.94
2019-02-12T16:48:32.216Z,5.96
2019-02-12T16:51:35.147Z,5.82
2019-02-12T16:54:38.447Z,5.83
2019-02-12T16:57:41.490Z,5.72
2019-02-12T17:00:44.511Z,5.75
2019-02-12T17:03:48.370Z,5.71
2019-02-12T17:06:51.270Z,5.72
2019-02-12T17:09:54.656Z,5.76
2019-02-12T17:12:57.941Z,5.72
2019-02-12T17:16:00.901Z,5.69
2019-02-12T17:19:03.947Z,5.68
2019-02-12T17:22:08.300Z,5.75
2019-02-12T17:25:11.550Z,5.74
2019-02-12T17:28:15.615Z,5.70
2019-02-12T17:31:19.630Z,5.66
2019-02-12T17:34:22.600Z,5.69
2019-02-12T17:37:25.888Z,5.56
2019-02-12T17:40:28.824Z,5.37
2019-02-12T17:43:31.911Z,5.41
2019-02-12T17:46:34.841Z,5.32
2019-02-12T17:49:37.770Z,5.30
2019-02-12T17:52:41.146Z,5.18
2019-02-12T17:55:44.490Z,5.41
2019-02-12T17:58:47.815Z,5.30
2019-02-12T18:01:50.747Z,5.26
2019-02-12T18:04:54.442Z,5.28
2019-02-12T18:07:57.743Z,5.20
2019-02-12T18:11:00.678Z,5.13
2019-02-12T18:14:03.605Z,4.98
2019-02-12T18:17:06.914Z,5.19
2019-02-12T18:20:10.180Z,5.12
2019-02-12T18:23:13.087Z,4.97
2019-02-12T18:26:16.792Z,5.09
2019-02-12T18:29:19.731Z,5.01
2019-02-12T18:32:22.712Z,5.06
2019-02-12T18:35:25.653Z,5.53
2019-02-12T18:38:28.664Z,5.86
2019-02-12T18:41:31.594Z,5.26
2019-02-12T18:44:34.828Z,5.24
2019-02-12T18:47:38.136Z,5.15
2019-02-12T18:50:41.064Z,5.27
2019-02-12T18:53:43.995Z,5.18
2019-02-12T18:56:47.298Z,5.13
2019-02-12T18:59:50.674Z,5.00
2019-02-12T19:02:53.707Z,4.94
2019-02-12T19:05:56.744Z,4.95
2019-02-12T19:08:59.868Z,5.00
2019-02-12T19:12:03.551Z,4.95
2019-02-12T19:15:09.755Z,4.85
2019-02-12T19:18:18.071Z,5.02
2019-02-12T19:21:21.407Z,4.93
2019-02-12T19:24:24.705Z,4.86
2019-02-12T19:27:27.628Z,4.75
2019-02-12T19:30:30.588Z,4.68
2019-02-12T19:33:33.592Z,4.70
2019-02-12T19:36:36.886Z,4.71
2019-02-12T19:39:40.150Z,4.71
2019-02-12T19:42:43.390Z,4.74
2019-02-12T19:45:47.101Z,4.63
2019-02-12T19:48:50.375Z,4.53
2019-02-12T19:51:53.726Z,4.71
2019-02-12T19:54:57.151Z,4.73
2019-02-12T19:58:00.100Z,4.65
2019-02-12T20:01:03.171Z,4.54
2019-02-12T20:04:06.567Z,4.69
2019-02-12T20:07:11.225Z,4.54
2019-02-12T20:10:15.110Z,4.49
2019-02-12T20:13:20.061Z,4.71
2019-02-12T20:16:25.705Z,4.58
2019-02-12T20:19:30.075Z,4.48
2019-02-12T20:22:33.886Z,4.54
2019-02-12T20:25:37.598Z,4.71
2019-02-12T20:28:41.757Z,4.73
2019-02-12T20:31:45.858Z,4.51
2019-02-12T20:34:50.169Z,4.78
2019-02-12T20:37:53.380Z,4.93
2019-02-12T20:40:56.339Z,4.88
2019-02-12T20:43:59.359Z,4.72
2019-02-12T20:47:02.398Z,4.74
2019-02-12T20:50:07.023Z,4.77
2019-02-12T20:53:10.250Z,4.89
2019-02-12T20:56:13.508Z,5.01
2019-02-12T20:59:17.164Z,5.01
2019-02-12T21:02:20.123Z,5.03
2019-02-12T21:05:23.048Z,5.01
2019-02-12T21:08:26.002Z,4.99
2019-02-12T21:11:30.005Z,5.45
2019-02-12T21:14:33.439Z,5.65
2019-02-12T21:17:36.348Z,5.28
2019-02-12T21:20:39.283Z,5.25
2019-02-12T21:23:42.216Z,5.13
2019-02-12T21:26:45.514Z,5.15
2019-02-12T21:29:48.705Z,5.16
2019-02-12T21:32:51.969Z,5.16
2019-02-12T21:35:55.967Z,5.01
2019-02-12T21:38:59.364Z,5.10
2019-02-12T21:42:02.288Z,5.06
2019-02-12T21:45:06.181Z,5.16
2019-02-12T21:48:09.086Z,5.06
2019-02-12T21:51:12.358Z,5.05
2019-02-12T21:54:16.007Z,5.08
2019-02-12T21:57:19.244Z,5.15
2019-02-12T22:00:22.184Z,5.08
2019-02-12T22:03:25.391Z,5.12
2019-02-12T22:06:28.519Z,5.11
2019-02-12T22:09:32.134Z,5.10
2019-02-12T22:12:35.412Z,5.20
2019-02-12T22:15:38.629Z,5.15
2019-02-12T22:18:42.289Z,5.11
2019-02-12T22:21:46.421Z,5.11
2019-02-12T22:24:49.428Z,5.12
2019-02-12T22:27:53.348Z,5.18
2019-02-12T22:30:56.952Z,5.19
2019-02-12T22:34:00.082Z,5.24
2019-02-12T22:37:03.026Z,5.18
2019-02-12T22:40:06.711Z,5.20
2019-02-12T22:43:09.699Z,5.31
2019-02-12T22:46:12.917Z,5.24
2019-02-12T22:49:15.839Z,5.27
2019-02-12T22:52:18.761Z,5.25
2019-02-12T22:55:22.391Z,5.30
2019-02-12T22:58:25.377Z,5.27
2019-02-12T23:01:38.607Z,5.34
2019-02-12T23:04:41.644Z,5.24
2019-02-12T23:07:44.896Z,5.20
2019-02-12T23:10:48.178Z,5.26
2019-02-12T23:13:51.200Z,5.33
2019-02-12T23:16:54.120Z,5.24
2019-02-12T23:19:57.398Z,5.27
2019-02-12T23:23:00.296Z,5.22
2019-02-12T23:26:03.231Z,5.25
2019-02-12T23:29:07.672Z,5.19
2019-02-12T23:32:10.584Z,5.18
2019-02-12T23:35:14.660Z,5.21
2019-02-12T23:38:17.571Z,5.20
2019-02-12T23:41:20.500Z,5.23
2019-02-12T23:44:23.712Z,5.19
2019-02-12T23:47:26.639Z,5.23
2019-02-12T23:50:29.581Z,5.26
2019-02-12T23:53:32.790Z,5.25
2019-02-12T23:56:35.741Z,5.21
2019-02-12T23:59:39.040Z,5.25
